EGBB/BHX METAR and TAF weather

Enter ICAO airport designator
Station Type Date Time Source
EGBB METAR 2022/08/16 19:50 UTC NOAA

EGBB 161950Z 04005KT 360V060 3000 SHRA SCT012 BKN022CB 18/16 Q1010 RETSRA


Station Type Date Time Source
EGBB Decoded METAR 2022/08/16 19:50 UTC NOAA

Birmingham / Airport, United Kingdom (EGBB) 52-27N 001-44W 0M
Aug 16, 2022 - 03:50 PM EDT / 2022.08.16 1950 UTC
Wind: from the NE (040 degrees) at 6 MPH (5 KT) (direction variable):0
Visibility: 1 mile(s):0
Sky conditions: mostly cloudy
Weather: rain showers; Cumulonimbus clouds observed
Temperature: 64 F (18 C)
Dew Point: 60 F (16 C)
Relative Humidity: 88%
Pressure (altimeter): 29.83 in. Hg (1010 hPa)
ob: EGBB 161950Z 04005KT 360V060 3000 SHRA SCT012 BKN022CB 18/16 Q1010 RETSRA
cycle: 20

Station Type Date Time Source
EGBB TAF 2022/08/16 18:09 UTC NOAA

TAF EGBB 161659Z 1618/1718 02011KT 9999 SCT030
TEMPO 1618/1714 7000 SHRA BKN012 PROB30
TEMPO 1618/1624 4000 +SHRA +TSGS BKN035CB PROB30
TEMPO 1700/1714 4000 +SHRA BKN008 PROB30
TEMPO 1704/1709 01015G25KT PROB30
TEMPO 1714/1718 8000 -SHRA BKN014

Example: see airport list